Time;durP1;ratioP1;P1;durP2;ratioP2;P2;SDS_P1;SDS_P2;PMS_P1;PMS_P2;Temp;Humidity;BMP_temperature;BMP_pressure;BME280_temperature;BME280_humidity;BME280_pressure;Samples;Min_cycle;Max_cycle;Signal;HPM_P1;HPM_P2
2021/03/30 00:01:59;;;;;;;25.40;18.80;;;;;;;9.41;82.17;100326.09;113583;1200;64391;-78
2021/03/30 00:04:26;;;;;;;25.53;17.63;;;;;;;9.43;82.14;100318.91;113671;1199;64378;-78
2021/03/30 00:06:53;;;;;;;24.80;17.77;;;;;;;9.48;82.16;100324.06;113613;1200;64944;-78
2021/03/30 00:09:19;;;;;;;25.67;17.80;;;;;;;9.50;82.25;100327.50;113561;1199;64384;-78
2021/03/30 00:11:46;;;;;;;24.97;18.23;;;;;;;9.47;82.07;100311.66;113558;1200;64365;-79
2021/03/30 00:14:12;;;;;;;26.00;20.80;;;;;;;9.49;82.26;100307.16;113676;1199;64340;-80
2021/03/30 00:16:39;;;;;;;29.50;22.80;;;;;;;9.52;82.10;100309.68;113540;1200;64458;-79
2021/03/30 00:19:06;;;;;;;27.77;21.87;;;;;;;9.57;82.13;100309.49;113638;1200;64465;-79
2021/03/30 00:21:32;;;;;;;26.63;19.17;;;;;;;9.59;82.25;100310.30;113527;1200;64467;-79
2021/03/30 00:23:59;;;;;;;25.60;18.20;;;;;;;9.57;82.30;100306.83;113513;1199;64356;-78
2021/03/30 00:26:25;;;;;;;26.10;19.97;;;;;;;9.56;82.18;100302.45;113546;1199;64378;-77
2021/03/30 00:28:52;;;;;;;28.30;25.30;;;;;;;9.58;82.39;100311.22;113525;1197;64417;-79
2021/03/30 00:31:18;;;;;;;24.35;21.30;;;;;;;9.56;82.19;100307.78;113577;1199;64452;-79
2021/03/30 00:33:45;;;;;;;24.70;20.35;;;;;;;9.55;82.31;100304.22;113516;1199;64391;-79
2021/03/30 00:36:12;;;;;;;27.07;20.97;;;;;;;9.55;82.58;100301.56;113527;1199;64419;-79
2021/03/30 00:38:38;;;;;;;23.23;19.47;;;;;;;9.58;82.33;100306.75;113520;1200;64381;-80
2021/03/30 00:41:05;;;;;;;27.13;19.67;;;;;;;9.56;82.37;100307.78;113497;1199;64545;-79
2021/03/30 00:43:32;;;;;;;22.60;19.85;;;;;;;9.53;82.38;100305.22;113529;1200;64346;-79
2021/03/30 00:45:59;;;;;;;27.57;22.03;;;;;;;9.53;82.48;100303.45;113480;1199;64340;-78
2021/03/30 00:48:27;;;;;;;25.40;18.93;;;;;;;9.60;82.57;100293.39;113525;1199;64412;-79
2021/03/30 00:50:55;;;;;;;26.37;18.73;;;;;;;9.65;82.38;100292.27;113563;1199;64423;-79
2021/03/30 00:53:21;;;;;;;24.07;21.27;;;;;;;9.67;82.41;100294.88;113575;1199;64487;-79
2021/03/30 00:55:48;;;;;;;24.47;21.87;;;;;;;9.72;82.52;100292.88;113565;1200;64765;-79
2021/03/30 00:58:15;;;;;;;25.47;21.43;;;;;;;9.76;82.33;100293.61;113615;1199;64449;-79
2021/03/30 01:00:42;;;;;;;26.50;21.53;;;;;;;9.77;82.27;100285.57;113572;1200;64327;-79
2021/03/30 01:03:09;;;;;;;27.65;21.55;;;;;;;9.79;82.25;100282.82;113532;1199;64314;-80
2021/03/30 01:05:36;;;;;;;27.60;20.30;;;;;;;9.76;82.30;100289.14;113629;1200;64494;-78
2021/03/30 01:08:15;;;;;;;26.63;22.60;;;;;;;9.73;82.17;100296.41;113526;1200;64385;-78
2021/03/30 01:11:00;;;;;;;26.20;23.40;;;;;;;9.68;82.24;100297.45;113612;1199;64356;-78
2021/03/30 01:13:45;;;;;;;26.50;21.73;;;;;;;9.68;82.35;100291.27;113573;1199;64384;-79
2021/03/30 01:16:20;;;;;;;30.65;25.70;;;;;;;9.70;82.41;100297.40;113585;1199;64895;-79
2021/03/30 01:19:09;;;;;;;30.20;26.07;;;;;;;9.73;82.42;100294.60;113552;1199;64382;-80
2021/03/30 01:22:13;;;;;;;34.13;30.50;;;;;;;9.71;82.38;100296.45;113591;1200;64494;-79
2021/03/30 01:24:46;;;;;;;42.00;32.00;;;;;;;9.73;82.43;100297.27;113555;1199;64330;-79
2021/03/30 01:27:37;;;;;;;30.00;26.70;;;;;;;9.78;82.47;100284.63;113576;1200;64378;-79
2021/03/30 01:30:06;;;;;;;32.50;25.65;;;;;;;9.79;82.36;100293.47;113566;1200;64388;-78
2021/03/30 01:32:39;;;;;;;32.50;24.30;;;;;;;9.81;82.35;100294.28;113560;1200;64430;-79
2021/03/30 01:35:15;;;;;;;29.10;23.43;;;;;;;9.83;82.39;100295.09;113571;1200;64481;-79
2021/03/30 01:37:48;;;;;;;29.30;24.93;;;;;;;9.87;82.35;100292.23;113553;1200;64378;-79
2021/03/30 01:40:21;;;;;;;34.17;26.17;;;;;;;9.90;82.34;100293.90;113584;1199;64473;-80
2021/03/30 01:42:49;;;;;;;30.40;27.20;;;;;;;9.86;82.16;100286.95;113665;1199;64305;-80
2021/03/30 01:45:18;;;;;;;31.07;27.57;;;;;;;9.82;82.10;100285.34;113577;1200;64420;-79
2021/03/30 01:47:46;;;;;;;30.67;27.37;;;;;;;9.78;82.08;100284.63;113596;1200;64439;-79
2021/03/30 01:50:14;;;;;;;29.47;26.17;;;;;;;9.73;82.05;100281.30;113564;1200;64349;-80
2021/03/30 01:52:42;;;;;;;36.50;30.45;;;;;;;9.73;82.17;100281.30;113742;1200;64496;-79
2021/03/30 01:55:17;;;;;;;30.77;27.47;;;;;;;9.73;82.24;100275.97;113684;1199;64368;-79
2021/03/30 01:57:53;;;;;;;34.23;29.67;;;;;;;9.72;82.27;100276.05;113624;1200;64491;-80
2021/03/30 02:00:36;;;;;;;35.45;31.65;;;;;;;9.72;82.37;100268.92;113679;1199;64512;-80
2021/03/30 02:03:06;;;;;;;37.00;33.10;;;;;;;9.68;82.25;100268.17;113589;1199;64416;-79
2021/03/30 02:05:34;;;;;;;37.20;33.13;;;;;;;9.63;82.29;100262.17;113704;1199;64416;-79
2021/03/30 02:08:02;;;;;;;36.30;32.55;;;;;;;9.62;82.60;100264.92;113559;1199;64499;-79
2021/03/30 02:10:36;;;;;;;37.60;33.50;;;;;;;9.63;82.51;100261.31;113637;1199;65571;-78
2021/03/30 02:13:06;;;;;;;37.55;31.85;;;;;;;9.64;82.76;100266.59;113632;1199;64544;-79
2021/03/30 02:15:33;;;;;;;36.75;32.75;;;;;;;9.67;82.70;100262.94;113577;1199;64398;-80
2021/03/30 02:18:06;;;;;;;35.90;32.00;;;;;;;9.68;82.71;100257.52;113559;1200;64382;-79
2021/03/30 02:20:42;;;;;;;36.60;32.80;;;;;;;9.69;82.54;100258.41;113607;1200;64394;-79
2021/03/30 02:23:16;;;;;;;39.77;35.37;;;;;;;9.75;82.72;100255.48;113638;1200;64432;-79
2021/03/30 02:25:46;;;;;;;43.90;39.27;;;;;;;9.76;82.65;100248.35;113644;1199;64366;-80
2021/03/30 02:28:16;;;;;;;40.27;35.97;;;;;;;9.76;82.51;100253.67;113592;1199;64366;-80
2021/03/30 02:30:45;;;;;;;42.20;38.00;;;;;;;9.75;82.63;100252.81;113575;1199;64378;-80
2021/03/30 02:33:20;;;;;;;42.10;37.53;;;;;;;9.74;82.77;100259.08;113717;1199;64323;-80
2021/03/30 02:35:49;;;;;;;37.00;32.43;;;;;;;9.79;82.98;100249.06;113581;1199;64388;-80
2021/03/30 02:38:17;;;;;;;38.20;34.03;;;;;;;9.87;82.94;100254.06;113599;1199;64407;-78
2021/03/30 02:40:46;;;;;;;37.90;33.93;;;;;;;9.91;82.75;100249.48;113577;1200;64334;-80
2021/03/30 02:43:16;;;;;;;36.50;31.33;;;;;;;9.86;82.62;100258.53;113695;1200;64404;-80
2021/03/30 02:45:46;;;;;;;36.33;32.20;;;;;;;9.83;82.52;100256.01;113718;1199;64410;-81
2021/03/30 02:48:12;;;;;;;;;;;;;;;9.76;82.62;100253.67;113711;1207;64378;-79
2021/03/30 02:50:41;;;;;;;37.40;33.60;;;;;;;9.76;82.83;100253.67;113657;1199;64388;-80
2021/03/30 02:53:08;;;;;;;36.00;32.37;;;;;;;9.75;82.81;100263.47;113504;1199;64403;-79
2021/03/30 02:55:36;;;;;;;36.30;31.73;;;;;;;9.74;82.68;100258.19;113629;1199;64413;-79
2021/03/30 02:58:06;;;;;;;32.65;29.20;;;;;;;9.71;82.66;100251.20;113617;1200;64439;-80
2021/03/30 03:00:34;;;;;;;36.30;31.93;;;;;;;9.68;82.71;100251.34;113455;1199;64337;-80
2021/03/30 03:03:04;;;;;;;37.80;33.77;;;;;;;9.63;82.91;100256.00;113628;1200;64314;-80
2021/03/30 03:05:31;;;;;;;40.73;36.30;;;;;;;9.62;83.03;100255.14;113654;1199;64387;-80
2021/03/30 03:07:59;;;;;;;46.07;40.73;;;;;;;9.61;82.97;100248.09;113618;1200;64391;-79
2021/03/30 03:10:26;;;;;;;39.83;35.83;;;;;;;9.61;83.01;100244.54;113661;1200;64375;-79
2021/03/30 03:12:55;;;;;;;34.80;31.10;;;;;;;9.60;82.82;100245.48;113619;1200;64372;-79
2021/03/30 03:15:23;;;;;;;34.57;31.07;;;;;;;9.60;82.93;100256.13;113611;1200;64442;-79
2021/03/30 03:17:52;;;;;;;50.97;45.80;;;;;;;9.57;83.07;100254.47;113640;1199;64482;-79
2021/03/30 03:20:19;;;;;;;58.57;52.27;;;;;;;9.55;83.18;100255.45;113743;1199;64477;-79
2021/03/30 03:22:46;;;;;;;61.30;54.90;;;;;;;9.53;83.32;100254.66;113688;1200;64379;-79
2021/03/30 03:25:14;;;;;;;66.15;58.90;;;;;;;9.51;83.65;100254.73;113586;1199;64542;-79
2021/03/30 03:27:41;;;;;;;73.97;66.03;;;;;;;9.55;83.54;100255.45;113543;1199;64481;-79
2021/03/30 03:30:10;;;;;;;71.30;63.80;;;;;;;9.58;83.60;100255.33;113602;1199;64420;-79
2021/03/30 03:32:38;;;;;;;61.77;53.67;;;;;;;9.58;83.55;100248.20;113667;1199;64419;-79
2021/03/30 03:35:10;;;;;;;56.83;50.67;;;;;;;9.64;83.56;100244.44;113611;1199;64365;-80
2021/03/30 03:37:47;;;;;;;48.10;42.67;;;;;;;9.71;83.66;100250.34;113657;1199;64477;-80
2021/03/30 03:40:16;;;;;;;52.45;46.95;;;;;;;9.70;83.48;100248.63;113682;1200;64503;-79
2021/03/30 03:42:42;;;;;;;50.70;45.23;;;;;;;9.68;83.37;100240.69;113665;1200;64387;-79
2021/03/30 03:45:11;;;;;;;53.53;47.90;;;;;;;9.68;83.28;100235.37;113637;1199;64368;-79
2021/03/30 03:47:37;;;;;;;50.97;45.87;;;;;;;9.61;83.07;100229.46;113661;1199;64473;-79
2021/03/30 03:50:05;;;;;;;46.07;41.37;;;;;;;9.56;82.97;100239.44;113508;1199;64506;-78
2021/03/30 03:52:36;;;;;;;41.97;37.63;;;;;;;9.56;83.05;100238.58;113552;1199;64530;-79
2021/03/30 03:55:05;;;;;;;40.77;36.77;;;;;;;9.51;82.97;100235.25;113620;1199;64392;-79
2021/03/30 03:57:40;;;;;;;44.40;39.90;;;;;;;9.53;83.25;100233.36;113538;1200;64308;-81
2021/03/30 04:00:08;;;;;;;49.25;44.15;;;;;;;9.64;83.57;100237.31;113474;1199;64333;-79
2021/03/30 04:02:46;;;;;;;50.50;45.30;;;;;;;9.72;83.61;100236.98;113577;1200;64429;-79
2021/03/30 04:05:20;;;;;;;52.00;46.73;;;;;;;9.76;83.34;100241.22;113611;1200;64564;-79
2021/03/30 04:07:52;;;;;;;44.13;39.60;;;;;;;9.67;82.97;100230.99;113586;1199;64333;-79
2021/03/30 04:10:23;;;;;;;42.20;38.17;;;;;;;9.56;82.90;100239.44;113580;1200;64366;-79
2021/03/30 04:12:51;;;;;;;39.73;35.73;;;;;;;9.52;82.77;100248.47;113662;1199;64368;-79
2021/03/30 04:15:24;;;;;;;44.13;39.73;;;;;;;9.47;83.07;100246.94;113483;1200;64455;-78
2021/03/30 04:17:52;;;;;;;52.25;47.15;;;;;;;9.43;83.31;100248.88;113645;1200;64522;-79
2021/03/30 04:20:20;;;;;;;56.13;50.37;;;;;;;9.41;83.26;100235.63;113581;1200;64487;-79
2021/03/30 04:25:17;;;;;;;50.05;44.80;;;;;;;9.42;83.50;100236.48;113631;1200;64407;-79
2021/03/30 04:27:43;;;;;;;43.40;39.30;;;;;;;9.42;83.30;100233.82;113549;1199;64529;-79
2021/03/30 04:30:11;;;;;;;43.45;39.25;;;;;;;9.39;83.10;100244.59;113533;1199;64413;-79
2021/03/30 04:32:38;;;;;;;48.50;43.80;;;;;;;9.38;83.16;100245.54;113574;1199;64330;-79
2021/03/30 04:35:05;;;;;;;49.17;44.27;;;;;;;9.37;83.25;100246.45;113690;1200;64359;-80
2021/03/30 04:37:32;;;;;;;51.50;46.20;;;;;;;9.37;83.15;100247.34;113515;1200;64352;-81
2021/03/30 04:39:59;;;;;;;52.03;46.93;;;;;;;9.37;83.19;100251.77;113509;1199;64321;-80
2021/03/30 04:42:25;;;;;;;49.53;44.60;;;;;;;9.35;83.24;100258.98;113566;1200;64327;-82
2021/03/30 04:44:52;;;;;;;50.57;45.23;;;;;;;9.42;83.54;100257.77;113750;1199;64394;-82
2021/03/30 04:47:21;;;;;;;53.65;47.80;;;;;;;9.54;83.75;100256.41;113664;1200;64384;-80
2021/03/30 04:49:48;;;;;;;49.63;44.20;;;;;;;9.63;83.77;100250.67;113605;1199;64314;-80
2021/03/30 04:52:14;;;;;;;53.30;47.47;;;;;;;9.76;83.81;100259.00;113542;1200;64378;-79
2021/03/30 04:54:41;;;;;;;58.57;52.57;;;;;;;9.85;83.67;100259.47;113595;1200;64455;-79
2021/03/30 04:57:08;;;;;;;62.20;55.75;;;;;;;9.96;83.51;100261.66;113589;1199;64356;-80
2021/03/30 04:59:35;;;;;;;68.00;60.70;;;;;;;10.03;83.39;100263.13;113504;1200;64358;-79
2021/03/30 05:02:01;;;;;;;59.95;53.85;;;;;;;10.09;83.17;100269.98;113502;1200;64323;-79
2021/03/30 05:04:28;;;;;;;52.50;47.37;;;;;;;10.06;82.67;100273.64;113484;1199;64426;-79
2021/03/30 05:06:55;;;;;;;52.20;46.80;;;;;;;9.99;82.64;100268.66;113488;1200;64446;-79
2021/03/30 05:09:21;;;;;;;45.30;41.00;;;;;;;9.93;82.42;100269.79;113545;1199;64339;-79
2021/03/30 05:11:48;;;;;;;58.53;52.53;;;;;;;9.92;82.59;100276.03;113649;1200;64474;-78
2021/03/30 05:14:15;;;;;;;63.15;56.25;;;;;;;9.90;82.64;100275.26;113674;1199;64374;-79
2021/03/30 05:16:41;;;;;;;65.20;58.43;;;;;;;9.87;82.82;100278.03;113527;1200;64420;-79
2021/03/30 05:19:08;;;;;;;71.97;64.20;;;;;;;9.82;82.82;100275.59;113554;1200;64500;-79
2021/03/30 05:21:34;;;;;;;59.90;50.43;;;;;;;9.81;83.00;100280.97;113520;1199;64407;-79
2021/03/30 05:24:01;;;;;;;55.25;49.40;;;;;;;9.82;83.04;100270.27;113524;1200;64442;-80
2021/03/30 05:26:27;;;;;;;53.33;47.60;;;;;;;9.86;83.00;100270.98;113595;1199;64311;-78
2021/03/30 05:28:54;;;;;;;53.55;47.80;;;;;;;9.90;83.08;100272.59;113555;1199;64515;-81
2021/03/30 05:31:20;;;;;;;51.85;45.85;;;;;;;9.93;83.15;100282.25;113612;1199;64599;-82
2021/03/30 05:33:47;;;;;;;57.27;51.07;;;;;;;9.97;83.10;100281.16;113585;1200;64340;-80
2021/03/30 05:36:14;;;;;;;64.60;57.65;;;;;;;9.98;82.92;100285.55;113589;1200;64355;-79
2021/03/30 05:38:41;;;;;;;66.53;59.60;;;;;;;10.04;83.03;100282.64;113543;1200;64372;-79
2021/03/30 05:41:08;;;;;;;67.00;60.00;;;;;;;10.11;82.99;100289.43;113572;1199;64388;-79
2021/03/30 05:43:37;;;;;;;63.10;56.25;;;;;;;10.14;82.80;100288.39;113605;1200;64394;-79
2021/03/30 05:46:04;;;;;;;56.50;50.40;;;;;;;10.17;82.80;100290.95;113651;1199;64439;-79
2021/03/30 05:48:33;;;;;;;56.20;49.60;;;;;;;10.22;82.76;100291.61;113661;1200;64310;-79
2021/03/30 05:51:00;;;;;;;51.00;45.50;;;;;;;10.30;82.61;100292.16;113632;1199;64327;-79
2021/03/30 05:53:27;;;;;;;54.37;48.47;;;;;;;10.40;82.64;100297.92;113650;1200;64448;-79
2021/03/30 05:56:02;;;;;;;60.20;53.83;;;;;;;10.49;82.58;100289.52;113662;1199;64519;-79
2021/03/30 05:58:31;;;;;;;63.30;56.47;;;;;;;10.61;82.79;100298.74;113638;1199;64375;-79
2021/03/30 06:01:03;;;;;;;66.35;59.35;;;;;;;10.74;82.53;100286.57;113655;1199;64398;-80
2021/03/30 06:03:32;;;;;;;60.30;53.80;;;;;;;10.87;82.33;100290.38;113704;1200;64400;-79
2021/03/30 06:06:01;;;;;;;56.05;50.03;;;;;;;10.97;82.13;100291.68;113657;1200;64477;-79
2021/03/30 10:30:43;;;;;;;23.50;16.10;;;;;;;18.76;57.84;100294.03;113568;1200;64539;-77
2021/03/30 10:33:40;;;;;;;23.40;17.33;;;;;;;18.90;56.50;100283.95;113613;1200;64301;-77
2021/03/30 10:36:13;;;;;;;21.70;16.75;;;;;;;19.03;57.24;100293.64;113660;1200;64480;-78
2021/03/30 10:39:01;;;;;;;20.97;16.80;;;;;;;19.18;55.53;100298.79;113648;1199;64362;-77
2021/03/30 10:41:45;;;;;;;24.30;17.50;;;;;;;19.11;56.52;100297.56;113556;1199;64487;-78
2021/03/30 11:04:05;;;;;;;15.90;11.33;;;;;;;19.05;53.49;100280.02;113683;1199;64554;-77
2021/03/30 11:06:36;;;;;;;16.73;11.90;;;;;;;19.13;52.82;100277.54;113762;1199;64510;-77
2021/03/30 11:09:07;;;;;;;17.13;11.48;;;;;;;19.32;53.18;100284.13;113780;1200;64554;-79
2021/03/30 11:11:35;;;;;;;15.95;11.40;;;;;;;19.43;52.27;100284.09;113821;1199;64356;-77
2021/03/30 11:14:04;;;;;;;14.10;11.80;;;;;;;19.51;52.28;100277.07;113795;1200;64419;-78
2021/03/30 11:16:33;;;;;;;17.50;11.73;;;;;;;19.75;52.37;100278.73;113706;1200;64535;-78
2021/03/30 11:19:03;;;;;;;13.03;11.20;;;;;;;19.89;51.70;100274.84;113674;1198;64365;-76
2021/03/30 11:21:31;;;;;;;15.40;11.65;;;;;;;19.96;50.24;100278.75;113684;1200;64443;-77
2021/03/30 11:24:01;;;;;;;12.87;11.03;;;;;;;19.83;49.76;100268.11;113677;1200;64352;-77
2021/03/30 11:26:29;;;;;;;13.97;10.70;;;;;;;19.89;50.15;100264.88;113414;1199;64439;-75
2021/03/30 11:28:59;;;;;;;15.65;12.20;;;;;;;19.85;49.67;100262.55;113627;1199;64356;-76
2021/03/30 11:34:09;;;;;;;18.75;12.85;;;;;;;20.08;49.26;100250.61;113615;1199;64390;-76
2021/03/30 11:36:41;;;;;;;18.43;14.03;;;;;;;20.15;50.79;100254.51;113671;1199;64378;-76
2021/03/30 11:39:10;;;;;;;16.13;12.70;;;;;;;20.21;48.80;100249.55;113620;1199;64500;-76
2021/03/30 11:45:09;;;;;;;23.70;14.00;;;;;;;20.12;49.75;100238.54;113656;1200;64394;-76
2021/03/30 11:47:37;;;;;;;14.47;11.57;;;;;;;20.28;50.84;100243.47;113615;1200;64452;-75
2021/03/30 11:50:06;;;;;;;12.77;10.50;;;;;;;20.46;50.74;100240.11;113684;1200;64414;-75
2021/03/30 11:53:15;;;;;;;12.43;10.00;;;;;;;20.70;51.01;100235.28;113447;1199;64390;-76
2021/03/30 11:55:44;;;;;;;17.07;10.27;;;;;;;20.83;50.29;100235.04;113575;1199;64404;-75
2021/03/30 11:58:11;;;;;;;12.70;10.07;;;;;;;20.80;50.93;100238.00;113672;1199;64400;-76
2021/03/30 13:08:39;;;;;;;8.45;7.60;;;;;;;20.34;48.53;100177.94;113615;1199;64384;-77
2021/03/30 13:11:06;;;;;;;10.30;7.55;;;;;;;20.26;48.65;100179.63;113540;1200;64417;-77
2021/03/30 13:13:33;;;;;;;8.60;7.63;;;;;;;20.22;48.73;100176.34;113606;1200;64468;-77
2021/03/30 13:16:26;;;;;;;11.20;8.27;;;;;;;20.15;49.18;100176.02;113316;1199;64410;-79
2021/03/30 13:18:55;;;;;;;11.37;8.27;;;;;;;20.09;49.81;100175.68;113601;1200;64346;-77
2021/03/30 13:21:27;;;;;;;12.60;10.80;;;;;;;20.11;49.00;100179.97;113661;1200;64528;-78
2021/03/30 13:23:56;;;;;;;12.23;10.40;;;;;;;20.09;48.96;100170.27;113619;1199;64474;-78
2021/03/30 13:30:13;;;;;;;15.10;10.90;;;;;;;19.89;48.86;100175.59;113621;1199;64369;-77
2021/03/30 13:32:41;;;;;;;12.00;10.73;;;;;;;19.78;49.15;100172.97;113615;1200;64445;-77
2021/03/30 13:35:12;;;;;;;13.20;10.67;;;;;;;19.73;48.80;100169.80;113603;1200;64470;-77
2021/03/30 13:38:04;;;;;;;13.57;10.20;;;;;;;19.62;48.60;100172.55;113538;1200;64374;-78
2021/03/30 13:40:33;;;;;;;12.27;10.23;;;;;;;19.51;49.02;100178.88;113638;1200;64516;-78
2021/03/30 13:43:04;;;;;;;11.10;9.95;;;;;;;19.51;49.24;100174.33;113601;1198;64435;-78
2021/03/30 13:45:39;;;;;;;14.40;9.87;;;;;;;19.63;49.72;100172.39;113614;1199;64449;-78
2021/03/30 13:48:44;;;;;;;13.13;9.90;;;;;;;19.63;49.53;100172.39;113643;1200;64390;-78
2021/03/30 13:51:12;;;;;;;16.90;12.03;;;;;;;19.60;49.12;100167.26;113668;1199;64347;-77
2021/03/30 13:53:39;;;;;;;17.77;13.33;;;;;;;19.58;50.08;100171.08;113598;1199;64637;-77
2021/03/30 13:56:08;;;;;;;14.93;11.60;;;;;;;19.66;49.91;100172.16;113624;1200;64394;-77
2021/03/30 13:58:36;;;;;;;14.55;11.78;;;;;;;19.66;49.66;100171.28;113572;1199;64451;-78
2021/03/30 14:04:35;;;;;;;15.13;11.53;;;;;;;19.38;49.47;100165.55;113556;1200;64407;-77
2021/03/30 14:07:05;;;;;;;11.83;10.63;;;;;;;19.33;49.84;100172.33;113576;1199;64417;-77
2021/03/30 14:09:34;;;;;;;18.23;12.63;;;;;;;19.28;50.06;100154.64;113540;1200;64365;-77
2021/03/30 14:15:55;;;;;;;18.50;13.30;;;;;;;19.31;50.33;100153.53;113575;1199;64330;-78
2021/03/30 14:19:10;;;;;;;18.37;13.00;;;;;;;19.32;49.96;100143.56;113569;1199;64618;-77
2021/03/30 14:21:34;;;;;;;15.27;13.33;;;;;;;19.30;50.34;100143.72;113375;1200;64336;-78
2021/03/30 14:24:24;;;;;;;21.27;14.93;;;;;;;19.31;50.20;100145.42;113601;1199;64739;-78
2021/03/30 14:26:51;;;;;;;;;;;;;;;19.33;50.71;100146.16;113514;1208;64551;-77
2021/03/30 14:29:20;;;;;;;15.40;10.70;;;;;;;19.35;50.42;100146.00;113641;1200;64383;-78
2021/03/30 14:31:48;;;;;;;12.77;10.73;;;;;;;19.37;50.68;100138.63;113610;1200;64528;-78
2021/03/30 14:34:41;;;;;;;15.50;12.10;;;;;;;19.48;50.52;100127.74;113642;1200;64609;-77
2021/03/30 14:37:11;;;;;;;16.80;11.23;;;;;;;19.65;50.68;100137.97;113597;1199;64462;-77
2021/03/30 14:39:46;;;;;;;14.43;11.30;;;;;;;19.84;50.10;100142.66;113609;1199;64409;-78
2021/03/30 14:42:18;;;;;;;14.73;12.33;;;;;;;19.93;49.94;100127.47;113668;1199;64382;-77
2021/03/30 15:01:47;;;;;;;16.27;14.37;;;;;;;19.60;49.63;100123.98;113524;1200;66292;-77
2021/03/30 15:04:19;;;;;;;14.37;10.13;;;;;;;19.70;49.09;100116.83;113560;1200;64433;-77
2021/03/30 15:06:48;;;;;;;12.87;10.60;;;;;;;19.66;49.33;100118.07;113614;1200;64353;-78
2021/03/30 15:09:18;;;;;;;11.40;9.93;;;;;;;19.66;50.03;100112.66;113676;1200;64595;-77
2021/03/30 15:11:49;;;;;;;13.27;10.70;;;;;;;19.63;49.71;100115.61;113638;1199;64553;-77
2021/03/30 15:14:21;;;;;;;15.97;12.80;;;;;;;19.43;49.42;100111.94;113571;1199;64552;-77
2021/03/30 15:16:52;;;;;;;14.90;12.45;;;;;;;19.20;49.16;100111.20;113570;1200;64385;-78
2021/03/30 15:19:24;;;;;;;17.33;12.67;;;;;;;18.97;49.68;100109.59;113675;1199;64452;-78
2021/03/30 15:25:22;;;;;;;15.47;12.23;;;;;;;18.71;50.54;100106.33;113586;1199;64467;-78
2021/03/30 15:27:57;;;;;;;14.20;11.90;;;;;;;18.63;50.35;100104.26;113590;1199;64391;-77
2021/03/30 15:30:24;;;;;;;22.27;12.90;;;;;;;18.58;51.10;100101.94;113566;1199;64439;-78
2021/03/30 15:32:54;;;;;;;16.25;13.10;;;;;;;18.56;50.76;100101.23;113639;1200;64439;-78
2021/03/30 15:35:21;;;;;;;17.88;12.25;;;;;;;18.58;51.24;100103.78;113629;1199;64363;-77
2021/03/30 15:37:51;;;;;;;14.07;12.23;;;;;;;18.60;51.74;100105.38;113574;1200;64435;-77
2021/03/30 15:40:21;;;;;;;18.73;12.60;;;;;;;18.65;51.66;100102.30;113543;1200;64311;-78
2021/03/30 15:42:49;;;;;;;17.47;12.43;;;;;;;18.67;51.75;100100.34;113695;1199;64377;-78
2021/03/30 15:45:42;;;;;;;14.95;12.60;;;;;;;18.68;51.71;100102.04;113696;1199;64433;-78
2021/03/30 15:48:09;;;;;;;20.53;13.17;;;;;;;18.70;51.72;100101.92;113611;1199;64557;-78
2021/03/30 15:50:39;;;;;;;22.13;13.83;;;;;;;18.70;51.92;100099.22;113594;1198;64433;-79
2021/03/30 15:53:11;;;;;;;24.85;15.18;;;;;;;18.63;51.98;100102.41;113673;1199;64465;-77
2021/03/30 15:55:39;;;;;;;15.60;12.80;;;;;;;18.58;51.63;100096.53;113638;1199;64377;-77
2021/03/30 15:58:08;;;;;;;15.33;12.53;;;;;;;18.54;52.38;100100.48;113650;1200;64394;-78
2021/03/30 16:00:36;;;;;;;21.67;14.10;;;;;;;18.51;52.15;100089.95;113708;1200;64372;-87
2021/03/30 16:03:05;;;;;;;23.20;16.63;;;;;;;18.47;51.87;100093.88;114126;1200;64476;-86
2021/03/30 16:05:33;;;;;;;19.23;13.80;;;;;;;18.45;52.39;100092.28;114425;1199;64307;-88
2021/03/30 16:08:00;;;;;;;23.50;15.05;;;;;;;18.41;52.23;100092.53;114711;1199;64454;-93
2021/03/30 16:10:28;;;;;;;20.83;14.87;;;;;;;18.36;52.10;100085.80;114511;1199;64356;-89
2021/03/30 16:12:56;;;;;;;20.50;13.25;;;;;;;18.30;52.08;100087.17;114298;1199;64112;-80
2021/03/30 16:15:23;;;;;;;14.13;11.97;;;;;;;18.26;52.30;100095.63;113573;1200;64455;-80
2021/03/30 16:17:51;;;;;;;16.20;13.17;;;;;;;18.17;52.25;100089.16;113534;1199;64477;-81
2021/03/30 16:20:19;;;;;;;23.57;15.07;;;;;;;18.07;52.38;100089.03;113566;1199;64445;-80
2021/03/30 16:22:49;;;;;;;17.40;13.87;;;;;;;17.99;52.59;100086.95;113663;1198;64413;-80
2021/03/30 16:25:19;;;;;;;18.77;14.47;;;;;;;17.90;52.75;100087.67;113613;1199;64398;-79
2021/03/30 16:27:47;;;;;;;15.97;13.47;;;;;;;17.83;53.04;100088.31;113608;1199;64467;-80
2021/03/30 16:30:17;;;;;;;17.67;13.43;;;;;;;17.74;53.32;100090.70;113643;1200;64417;-80
2021/03/30 16:32:45;;;;;;;22.98;15.60;;;;;;;17.66;53.44;100087.75;113652;1200;64359;-81
2021/03/30 16:35:13;;;;;;;16.63;13.40;;;;;;;17.60;53.28;100092.78;113673;1200;64416;-80
2021/03/30 16:37:42;;;;;;;14.87;12.80;;;;;;;17.53;53.62;100087.86;113569;1199;64491;-79
2021/03/30 16:40:10;;;;;;;16.60;11.73;;;;;;;17.45;54.00;100092.14;113631;1199;64393;-80
2021/03/30 16:42:38;;;;;;;18.93;13.80;;;;;;;17.35;54.22;100086.59;113576;1199;64445;-81
2021/03/30 16:45:07;;;;;;;19.17;14.03;;;;;;;17.24;54.39;100086.58;113589;1199;64394;-80
2021/03/30 16:47:35;;;;;;;20.80;13.03;;;;;;;17.14;54.61;100086.45;113614;1200;64375;-80
2021/03/30 16:50:05;;;;;;;17.95;12.90;;;;;;;17.02;54.70;100093.63;113548;1199;64417;-79
2021/03/30 16:52:34;;;;;;;20.63;14.13;;;;;;;16.93;55.17;100096.14;113565;1200;64455;-80
2021/03/30 16:55:01;;;;;;;18.90;14.00;;;;;;;16.80;55.25;100094.40;113608;1200;64484;-80
2021/03/30 16:57:29;;;;;;;18.30;14.00;;;;;;;16.72;55.56;100095.89;113610;1199;64813;-80
2021/03/30 16:59:58;;;;;;;16.65;14.35;;;;;;;16.62;55.41;100088.52;113715;1199;64573;-80
2021/03/30 17:02:26;;;;;;;18.95;14.10;;;;;;;16.53;55.68;100096.41;113638;1199;64435;-80
2021/03/30 17:04:53;;;;;;;20.33;14.27;;;;;;;16.40;55.87;100091.06;113581;1199;64522;-81
2021/03/30 17:07:21;;;;;;;16.10;13.30;;;;;;;16.30;56.39;100087.33;113722;1200;64441;-80
2021/03/30 17:09:54;;;;;;;19.30;13.90;;;;;;;16.19;56.47;100096.19;113597;1199;64458;-83
2021/03/30 17:12:24;;;;;;;17.03;13.33;;;;;;;16.09;56.47;100096.02;113595;1199;64378;-82
2021/03/30 17:14:55;;;;;;;16.40;13.50;;;;;;;15.98;56.74;100093.22;113621;1199;64195;-80
2021/03/30 17:17:29;;;;;;;19.35;14.35;;;;;;;15.89;56.99;100092.06;113619;1200;64458;-81
2021/03/30 17:19:57;;;;;;;17.53;14.10;;;;;;;15.82;57.52;100101.52;113613;1200;64378;-81
2021/03/30 17:22:27;;;;;;;18.05;15.25;;;;;;;15.75;57.39;100106.48;113656;1200;64356;-80
2021/03/30 17:24:55;;;;;;;19.37;14.97;;;;;;;15.66;57.52;100104.40;113656;1200;64362;-81
2021/03/30 17:27:23;;;;;;;18.55;13.80;;;;;;;15.58;57.85;100109.45;113686;1200;64510;-80
2021/03/30 17:29:51;;;;;;;18.97;14.10;;;;;;;15.47;57.91;100107.52;113664;1199;64539;-81
2021/03/30 17:32:19;;;;;;;18.70;14.10;;;;;;;15.37;58.46;100109.97;113616;1199;64999;-81
2021/03/30 17:34:47;;;;;;;18.45;13.70;;;;;;;15.28;58.34;100110.63;113661;1199;64397;-80
2021/03/30 17:37:15;;;;;;;16.75;13.55;;;;;;;15.16;58.30;100108.77;113619;1199;64487;-81
2021/03/30 17:39:43;;;;;;;16.50;13.70;;;;;;;15.05;58.76;100109.50;113712;1200;64318;-81
2021/03/30 17:42:11;;;;;;;21.27;15.13;;;;;;;14.95;58.86;100116.45;113609;1200;64622;-80
2021/03/30 17:44:38;;;;;;;20.47;15.77;;;;;;;14.84;59.29;100109.11;113625;1199;64853;-81
2021/03/30 17:47:06;;;;;;;20.30;15.80;;;;;;;14.75;59.47;100115.11;113596;1200;64363;-81
2021/03/30 17:49:34;;;;;;;22.15;17.50;;;;;;;14.64;59.74;100121.19;113622;1200;64315;-80
2021/03/30 17:52:03;;;;;;;23.87;17.30;;;;;;;14.53;59.66;100114.79;113636;1200;64407;-82